Airfield :
LOGIN :

Register | Disclaimer

   EN    FR    IT 

 










Legend :    VFR   Marginal VFR   IFR   Intensive IFR   Very Intensive IFR
Visi :
Ceiling :
>= 8 km
>= 3000ft
5 to 8 km
1000 to 3000 ft
1500m to 5 km
500 to 1000 ft
800 to 1500m
200 to 500 ft
< 800m
< 200 ft
Symbols :   Thunderstorms  Fog  Heavy snow  Heavy precipitations  Wind > 20 kt
SIGMETs :     Misc.  Thunderstorms  Icing  Turbulence  Mountain Waves  Volcanic Ashes







- Airport Elevation : 527 ft
- IATA code : DBV


LDDU - Dubrovnik

CURRENT METAR :
  • 152230Z 04015KT 010V070 CAVOK 09/M06 Q1028

EXPIRED METARs :
  • 152200Z 04016KT 010V080 CAVOK 09/M06 Q1028
  • 152130Z 04015KT 360V090 CAVOK 09/M06 Q1028
  • 152100Z 04013KT 360V080 CAVOK 08/M07 Q1028 NOSIG
  • 152030Z 04014KT 010V080 CAVOK 09/M07 Q1027 TEMPO 03018G28KT
  • 152000Z VRB06KT CAVOK 08/M06 Q1027 TEMPO 03018G28KT

TAF AMD TAF LDDU
Valid from the 15 at 19:00 until the 16 at 18:00 UTC


151940Z 1519/1618 02012KT 9999 FEW050 TX13/1612Z TN05/1605Z
PROB30
TEMPO 1519/1603 02018G28KT
BECMG 1609/1611 22008KT
TEMPO 1613/1616 28009KT
No reported NOTAMs for that airfield.



MET'MAP, your aeronautical weather chart ! - Copyright ORBIFLY December 2007 - Disclaimer

ORBIFLY MET'MAP TEAM :

Programming & Development : Alexandra Zaïnal
Concept & Development : Baudouin d'Aumeries
Co-Development & Prog : Marc-Olivier Méhu
Technical & hardware support : Manuel Goepfert

Contact : metmap@orbifly.com




SOURCES & CREDITS :

   NOAA